Time,TemperatureF,DewpointF,PressureIn,WindDirection,WindDirectionDegrees,WindSpeedMPH,WindSpeedGustMPH,Humidity,HourlyPrecipIn,Conditions,Clouds,dailyrainin,SolarRadiationWatts/m^2,SoftwareType,DateUTC
2013-03-13 00:02:00,40.0,31.0,-100.00,SSW,210,3.0,4.0,68,0.00,,,-99.99,0.000000,,2013-03-13 06:02:00,
2013-03-13 00:12:00,40.0,31.0,-100.00,SW,221,4.0,6.0,72,0.00,,,-99.99,0.000000,,2013-03-13 06:12:00,
2013-03-13 00:21:00,40.0,31.0,-100.00,SW,221,4.0,6.0,72,0.00,,,-99.99,0.000000,,2013-03-13 06:21:00,
2013-03-13 00:32:00,40.0,31.0,-100.00,SW,221,4.0,6.0,72,0.00,,,-99.99,0.000000,,2013-03-13 06:32:00,
2013-03-13 00:41:00,40.0,31.0,-100.00,SW,221,4.0,6.0,72,0.00,,,-99.99,0.000000,,2013-03-13 06:41:00,
2013-03-13 01:23:00,38.0,31.0,-100.00,WSW,243,5.0,7.0,75,0.00,,,-99.99,0.000000,,2013-03-13 07:23:00,
2013-03-13 01:33:00,39.0,31.0,-100.00,WSW,237,5.0,8.0,72,0.00,,,-99.99,0.000000,,2013-03-13 07:33:00,
2013-03-13 01:43:00,40.0,31.0,-100.00,SW,214,5.0,9.0,70,0.00,,,-99.99,0.000000,,2013-03-13 07:43:00,
2013-03-13 01:52:00,40.0,31.0,-100.00,SW,214,6.0,11.0,70,0.00,,,-99.99,0.000000,,2013-03-13 07:52:00,
2013-03-13 02:02:00,39.0,31.0,-100.00,WSW,251,5.0,7.0,71,0.00,,,-99.99,0.000000,,2013-03-13 08:02:00,
2013-03-13 02:12:00,40.0,30.0,-100.00,SW,234,8.0,13.0,68,0.00,,,-99.99,0.000000,,2013-03-13 08:12:00,
2013-03-13 02:21:00,39.0,30.0,-100.00,SW,229,8.0,12.0,70,0.00,,,-99.99,0.000000,,2013-03-13 08:21:00,
2013-03-13 02:32:00,39.0,30.0,-100.00,SW,234,7.0,10.0,70,0.00,,,-99.99,0.000000,,2013-03-13 08:32:00,
2013-03-13 02:42:00,39.0,30.0,-100.00,SSW,204,5.0,9.0,70,0.00,,,-99.99,0.000000,,2013-03-13 08:42:00,
2013-03-13 02:52:00,39.0,30.0,-100.00,South,189,6.0,7.0,70,0.00,,,-99.99,0.000000,,2013-03-13 08:52:00,
2013-03-13 03:02:00,38.0,30.0,-100.00,South,181,5.0,6.0,71,0.00,,,-99.99,0.000000,,2013-03-13 09:02:00,
2013-03-13 03:12:00,38.0,30.0,-100.00,SSW,199,5.0,6.0,72,0.00,,,-99.99,0.000000,,2013-03-13 09:12:00,
2013-03-13 03:22:00,37.0,29.0,-100.00,South,187,4.0,6.0,74,0.00,,,-99.99,0.000000,,2013-03-13 09:22:00,
2013-03-13 03:32:00,37.0,30.0,-100.00,SSW,201,4.0,5.0,75,0.00,,,-99.99,0.000000,,2013-03-13 09:32:00,
2013-03-13 03:42:00,36.0,29.0,-100.00,South,189,4.0,6.0,76,0.00,,,-99.99,0.000000,,2013-03-13 09:42:00,
2013-03-13 03:52:00,36.0,30.0,-100.00,SSW,205,4.0,5.0,76,0.00,,,-99.99,0.000000,,2013-03-13 09:52:00,
2013-03-13 04:01:00,36.0,30.0,-100.00,SSW,208,4.0,6.0,76,0.00,,,-99.99,0.000000,,2013-03-13 10:01:00,
2013-03-13 04:11:00,36.0,30.0,-100.00,SW,227,5.0,6.0,76,0.00,,,-99.99,0.000000,,2013-03-13 10:11:00,
2013-03-13 04:22:00,38.0,30.0,-100.00,SW,215,7.0,9.0,74,0.00,,,-99.99,0.000000,,2013-03-13 10:22:00,
2013-03-13 04:32:00,38.0,30.0,-100.00,SSW,208,6.0,8.0,73,0.00,,,-99.99,0.000000,,2013-03-13 10:32:00,
2013-03-13 04:42:00,38.0,29.0,-100.00,SW,216,6.0,8.0,72,0.00,,,-99.99,0.000000,,2013-03-13 10:42:00,
2013-03-13 04:50:00,39.0,29.0,-100.00,SW,222,8.0,11.0,68,0.00,,,-99.99,0.000000,,2013-03-13 10:50:00,
2013-03-13 04:52:00,38.0,29.0,-100.00,SW,222,6.0,9.0,71,0.00,,,-99.99,0.000000,,2013-03-13 10:52:00,
2013-03-13 05:01:00,37.0,29.0,-100.00,SW,229,6.0,9.0,73,0.00,,,-99.99,0.000000,,2013-03-13 11:01:00,
2013-03-13 05:12:00,39.0,29.0,-100.00,SW,222,8.0,11.0,68,0.00,,,-99.99,0.000000,,2013-03-13 11:12:00,
2013-03-13 05:21:00,39.0,29.0,-100.00,SW,222,8.0,11.0,68,0.00,,,-99.99,0.000000,,2013-03-13 11:21:00,
2013-03-13 05:32:00,39.0,29.0,-100.00,SW,222,8.0,11.0,68,0.00,,,-99.99,0.000000,,2013-03-13 11:32:00,
2013-03-13 05:42:00,39.0,29.0,-100.00,SW,222,8.0,11.0,68,0.00,,,-99.99,0.000000,,2013-03-13 11:42:00,
2013-03-13 06:22:00,37.0,29.0,-100.00,SW,216,6.0,8.0,72,0.00,,,-99.99,0.000000,,2013-03-13 12:22:00,
2013-03-13 06:32:00,37.0,29.0,-100.00,SSW,204,5.0,7.0,72,0.00,,,-99.99,0.000000,,2013-03-13 12:32:00,
2013-03-13 06:42:00,37.0,29.0,-100.00,South,191,5.0,6.0,72,0.00,,,-99.99,0.000000,,2013-03-13 12:42:00,
2013-03-13 06:53:00,36.0,29.0,-100.00,South,189,4.0,6.0,74,0.00,,,-99.99,0.000000,,2013-03-13 12:53:00,
2013-03-13 07:02:00,36.0,29.0,-100.00,SSW,197,5.0,7.0,75,0.00,,,-99.99,0.000000,,2013-03-13 13:02:00,
2013-03-13 07:11:00,36.0,28.0,-100.00,South,190,5.0,7.0,74,0.00,,,-99.99,0.000000,,2013-03-13 13:11:00,
2013-03-13 07:21:00,37.0,29.0,-100.00,South,190,5.0,9.0,71,0.00,,,-99.99,0.000000,,2013-03-13 13:21:00,
2013-03-13 07:32:00,37.0,28.0,-100.00,SSW,194,4.0,7.0,71,0.00,,,-99.99,0.000000,,2013-03-13 13:32:00,
2013-03-13 07:41:00,36.0,28.0,-100.00,SW,219,5.0,8.0,73,0.00,,,-99.99,0.000000,,2013-03-13 13:41:00,
2013-03-13 07:52:00,36.0,29.0,-100.00,SW,228,7.0,10.0,74,0.00,,,-99.99,1.000000,,2013-03-13 13:52:00,
2013-03-13 08:02:00,36.0,29.0,-100.00,SW,215,7.0,9.0,75,0.00,,,-99.99,3.000000,,2013-03-13 14:02:00,
2013-03-13 08:11:00,36.0,29.0,-100.00,SSW,208,8.0,10.0,75,0.00,,,-99.99,7.000000,,2013-03-13 14:11:00,
2013-03-13 08:21:00,36.0,29.0,-100.00,SSW,208,7.0,9.0,76,0.00,,,-99.99,12.000000,,2013-03-13 14:21:00,
2013-03-13 08:32:00,36.0,29.0,-100.00,SSW,199,6.0,10.0,76,0.00,,,-99.99,17.000000,,2013-03-13 14:32:00,
2013-03-13 08:42:00,35.0,29.0,-100.00,SW,220,5.0,9.0,77,0.00,,,-99.99,20.000000,,2013-03-13 14:42:00,
2013-03-13 08:52:00,35.0,29.0,-100.00,SW,218,4.0,7.0,78,0.00,,,-99.99,24.000000,,2013-03-13 14:52:00,
2013-03-13 09:02:00,37.0,29.0,-100.00,SW,216,6.0,9.0,73,0.00,,,-99.99,30.000000,,2013-03-13 15:02:00,
2013-03-13 09:11:00,38.0,29.0,-100.00,SSW,207,7.0,9.0,69,0.00,,,-99.99,51.000000,,2013-03-13 15:11:00,
2013-03-13 09:21:00,39.0,30.0,-100.00,South,178,6.0,8.0,70,0.00,,,-99.99,194.000000,,2013-03-13 15:21:00,
2013-03-13 09:32:00,40.0,30.0,-100.00,SSW,200,7.0,10.0,68,0.00,,,-99.99,238.000000,,2013-03-13 15:32:00,
2013-03-13 09:42:00,41.0,31.0,-100.00,SW,219,7.0,10.0,65,0.00,,,-99.99,277.000000,,2013-03-13 15:42:00,
2013-03-13 09:50:00,43.0,31.0,-100.00,SSW,210,7.0,9.0,61,0.00,,,-99.99,392.000000,,2013-03-13 15:50:00,
2013-03-13 09:52:00,42.0,31.0,-100.00,SW,230,7.0,10.0,64,0.00,,,-99.99,320.000000,,2013-03-13 15:52:00,
2013-03-13 10:02:00,43.0,30.0,-100.00,SW,226,7.0,10.0,62,0.00,,,-99.99,355.000000,,2013-03-13 16:02:00,
2013-03-13 10:12:00,43.0,31.0,-100.00,SSW,210,7.0,9.0,61,0.00,,,-99.99,392.000000,,2013-03-13 16:12:00,
2013-03-13 10:21:00,43.0,31.0,-100.00,SSW,210,7.0,9.0,61,0.00,,,-99.99,392.000000,,2013-03-13 16:21:00,
2013-03-13 10:32:00,43.0,31.0,-100.00,SSW,210,7.0,9.0,61,0.00,,,-99.99,392.000000,,2013-03-13 16:32:00,
2013-03-13 10:42:00,43.0,31.0,-100.00,SSW,210,7.0,9.0,61,0.00,,,-99.99,392.000000,,2013-03-13 16:42:00,
2013-03-13 11:23:00,53.0,32.0,-100.00,SSW,206,5.0,7.0,45,0.00,,,-99.99,573.000000,,2013-03-13 17:23:00,
2013-03-13 11:33:00,52.0,32.0,-100.00,SW,221,6.0,9.0,45,0.00,,,-99.99,625.000000,,2013-03-13 17:33:00,
2013-03-13 11:42:00,54.0,33.0,-100.00,SW,227,4.0,6.0,45,0.00,,,-99.99,652.000000,,2013-03-13 17:42:00,
2013-03-13 11:53:00,55.0,31.0,-100.00,South,173,3.0,5.0,39,0.00,,,-99.99,673.000000,,2013-03-13 17:53:00,
2013-03-13 12:02:00,55.0,32.0,-100.00,SE,132,4.0,7.0,41,0.00,,,-99.99,700.000000,,2013-03-13 18:02:00,
2013-03-13 12:12:00,55.0,31.0,-100.00,NE,48,5.0,7.0,39,0.00,,,-99.99,701.000000,,2013-03-13 18:12:00,
2013-03-13 12:21:00,56.0,31.0,-100.00,ENE,66,4.0,7.0,39,0.00,,,-99.99,737.000000,,2013-03-13 18:21:00,
2013-03-13 12:42:00,59.0,29.0,-100.00,SW,228,3.0,6.0,32,0.00,,,-99.99,734.000000,,2013-03-13 18:42:00,
2013-03-13 12:51:00,58.0,31.0,-100.00,SW,224,5.0,9.0,35,0.00,,,-99.99,772.000000,,2013-03-13 18:51:00,
2013-03-13 13:02:00,58.0,28.0,-100.00,SSW,202,7.0,9.0,31,0.00,,,-99.99,795.000000,,2013-03-13 19:02:00,
2013-03-13 13:12:00,59.0,29.0,-100.00,SSW,204,7.0,10.0,31,0.00,,,-99.99,686.000000,,2013-03-13 19:12:00,
2013-03-13 13:21:00,59.0,29.0,-100.00,SSW,212,8.0,12.0,31,0.00,,,-99.99,810.000000,,2013-03-13 19:21:00,
2013-03-13 13:31:00,60.0,29.0,-100.00,SW,223,7.0,10.0,30,0.00,,,-99.99,792.000000,,2013-03-13 19:31:00,
2013-03-13 13:42:00,60.0,28.0,-100.00,SW,221,6.0,10.0,29,0.00,,,-99.99,824.000000,,2013-03-13 19:42:00,
2013-03-13 13:52:00,61.0,28.0,-100.00,SW,216,7.0,10.0,29,0.00,,,-99.99,815.000000,,2013-03-13 19:52:00,
2013-03-13 14:02:00,61.0,27.0,-100.00,SSW,212,7.0,11.0,27,0.00,,,-99.99,755.000000,,2013-03-13 20:02:00,
2013-03-13 14:11:00,61.0,27.0,-100.00,SW,214,7.0,10.0,28,0.00,,,-99.99,838.000000,,2013-03-13 20:11:00,
2013-03-13 14:21:00,61.0,27.0,-100.00,SSW,197,6.0,10.0,27,0.00,,,-99.99,810.000000,,2013-03-13 20:21:00,
2013-03-13 14:32:00,62.0,27.0,-100.00,SW,228,6.0,11.0,26,0.00,,,-99.99,765.000000,,2013-03-13 20:32:00,
2013-03-13 14:41:00,62.0,29.0,-100.00,SW,228,7.0,11.0,28,0.00,,,-99.99,780.000000,,2013-03-13 20:41:00,
2013-03-13 14:50:00,63.0,27.0,-100.00,SW,223,7.0,11.0,26,0.00,,,-99.99,746.000000,,2013-03-13 20:50:00,
2013-03-13 14:51:00,63.0,29.0,-100.00,SW,218,7.0,11.0,28,0.00,,,-99.99,734.000000,,2013-03-13 20:51:00,
2013-03-13 15:01:00,63.0,27.0,-100.00,SW,230,6.0,10.0,26,0.00,,,-99.99,768.000000,,2013-03-13 21:01:00,
2013-03-13 15:11:00,63.0,27.0,-100.00,SW,223,7.0,11.0,26,0.00,,,-99.99,746.000000,,2013-03-13 21:11:00,
2013-03-13 15:21:00,63.0,27.0,-100.00,SW,223,7.0,11.0,26,0.00,,,-99.99,746.000000,,2013-03-13 21:21:00,
2013-03-13 15:32:00,63.0,27.0,-100.00,SW,223,7.0,11.0,26,0.00,,,-99.99,746.000000,,2013-03-13 21:32:00,
2013-03-13 15:41:00,63.0,27.0,-100.00,SW,223,7.0,11.0,26,0.00,,,-99.99,746.000000,,2013-03-13 21:41:00,
2013-03-13 16:22:00,65.0,23.0,-100.00,WSW,239,4.0,6.0,20,0.00,,,-99.99,621.000000,,2013-03-13 22:22:00,
2013-03-13 16:32:00,65.0,24.0,-100.00,SW,232,4.0,6.0,21,0.00,,,-99.99,435.000000,,2013-03-13 22:32:00,
2013-03-13 16:42:00,65.0,23.0,-100.00,SW,214,4.0,8.0,20,0.00,,,-99.99,455.000000,,2013-03-13 22:42:00,
2013-03-13 16:52:00,65.0,23.0,-100.00,SW,214,4.0,8.0,20,0.00,,,-99.99,455.000000,,2013-03-13 22:52:00,
2013-03-13 17:01:00,65.0,19.0,-100.00,SW,216,4.0,6.0,17,0.00,,,-99.99,500.000000,,2013-03-13 23:01:00,
2013-03-13 17:12:00,65.0,18.0,-100.00,South,177,3.0,7.0,16,0.00,,,-99.99,340.000000,,2013-03-13 23:12:00,
2013-03-13 17:21:00,65.0,16.0,-100.00,SW,224,4.0,6.0,15,0.00,,,-99.99,338.000000,,2013-03-13 23:21:00,
2013-03-13 17:32:00,65.0,15.0,-100.00,WSW,258,4.0,6.0,14,0.00,,,-99.99,363.000000,,2013-03-13 23:32:00,
2013-03-13 17:42:00,65.0,21.0,-100.00,WNW,297,3.0,4.0,18,0.00,,,-99.99,355.000000,,2013-03-13 23:42:00,
2013-03-13 17:51:00,65.0,19.0,-100.00,West,262,3.0,4.0,17,0.00,,,-99.99,244.000000,,2013-03-13 23:51:00,
2013-03-13 18:02:00,65.0,30.0,-100.00,SW,227,4.0,7.0,27,0.00,,,-99.99,283.000000,,2013-03-14 00:02:00,
2013-03-13 18:11:00,64.0,28.0,-100.00,East,98,3.0,4.0,26,0.00,,,-99.99,227.000000,,2013-03-14 00:11:00,
2013-03-13 18:21:00,65.0,29.0,-100.00,ENE,74,2.0,3.0,26,0.00,,,-99.99,272.000000,,2013-03-14 00:21:00,
2013-03-13 18:32:00,63.0,31.0,-100.00,ENE,68,4.0,5.0,29,0.00,,,-99.99,160.000000,,2013-03-14 00:32:00,
2013-03-13 18:42:00,63.0,30.0,-100.00,South,190,2.0,4.0,29,0.00,,,-99.99,105.000000,,2013-03-14 00:42:00,
2013-03-13 18:52:00,62.0,31.0,-100.00,ESE,113,4.0,6.0,31,0.00,,,-99.99,119.000000,,2013-03-14 00:52:00,
2013-03-13 19:02:00,61.0,30.0,-100.00,ESE,108,2.0,5.0,30,0.00,,,-99.99,65.000000,,2013-03-14 01:02:00,
2013-03-13 19:12:00,61.0,32.0,-100.00,NW,315,3.0,4.0,34,0.00,,,-99.99,43.000000,,2013-03-14 01:12:00,
2013-03-13 19:21:00,59.0,29.0,-100.00,SE,126,3.0,4.0,31,0.00,,,-99.99,31.000000,,2013-03-14 01:21:00,
2013-03-13 19:32:00,58.0,28.0,-100.00,East,84,3.0,6.0,32,0.00,,,-99.99,23.000000,,2013-03-14 01:32:00,
2013-03-13 19:41:00,55.0,26.0,-100.00,ESE,109,5.0,6.0,32,0.00,,,-99.99,13.000000,,2013-03-14 01:41:00,
2013-03-13 19:50:00,54.0,24.0,-100.00,SE,132,6.0,8.0,31,0.00,,,-99.99,0.000000,,2013-03-14 01:50:00,
2013-03-13 19:52:00,55.0,26.0,-100.00,ESE,109,5.0,6.0,32,0.00,,,-99.99,13.000000,,2013-03-14 01:52:00,
2013-03-13 20:02:00,54.0,25.0,-100.00,SE,127,6.0,9.0,32,0.00,,,-99.99,1.000000,,2013-03-14 02:02:00,
2013-03-13 20:11:00,54.0,24.0,-100.00,SE,132,6.0,8.0,31,0.00,,,-99.99,0.000000,,2013-03-14 02:11:00,
2013-03-13 20:21:00,54.0,24.0,-100.00,SE,132,6.0,8.0,31,0.00,,,-99.99,0.000000,,2013-03-14 02:21:00,
2013-03-13 20:32:00,54.0,24.0,-100.00,SE,132,6.0,8.0,31,0.00,,,-99.99,0.000000,,2013-03-14 02:32:00,
2013-03-13 20:42:00,54.0,24.0,-100.00,SE,132,6.0,8.0,31,0.00,,,-99.99,0.000000,,2013-03-14 02:42:00,
2013-03-13 21:23:00,53.0,22.0,-100.00,SE,136,8.0,10.0,30,0.00,,,-99.99,0.000000,,2013-03-14 03:23:00,
2013-03-13 21:33:00,53.0,22.0,-100.00,SE,144,7.0,11.0,30,0.00,,,-99.99,0.000000,,2013-03-14 03:33:00,
2013-03-13 21:42:00,52.0,22.0,-100.00,SSE,149,7.0,10.0,31,0.00,,,-99.99,0.000000,,2013-03-14 03:42:00,
2013-03-13 21:52:00,52.0,23.0,-100.00,SSE,159,5.0,7.0,33,0.00,,,-99.99,0.000000,,2013-03-14 03:52:00,
2013-03-13 22:02:00,52.0,23.0,-100.00,SE,145,6.0,8.0,31,0.00,,,-99.99,0.000000,,2013-03-14 04:02:00,
2013-03-13 22:11:00,51.0,23.0,-100.00,SSE,152,6.0,11.0,33,0.00,,,-99.99,0.000000,,2013-03-14 04:11:00,
2013-03-13 22:21:00,50.0,24.0,-100.00,SSE,154,4.0,5.0,35,0.00,,,-99.99,0.000000,,2013-03-14 04:21:00,
2013-03-13 22:32:00,51.0,22.0,-100.00,SSE,155,3.0,4.0,32,0.00,,,-99.99,0.000000,,2013-03-14 04:32:00,
2013-03-13 22:41:00,52.0,23.0,-100.00,South,169,3.0,5.0,32,0.00,,,-99.99,0.000000,,2013-03-14 04:41:00,
2013-03-13 22:52:00,49.0,23.0,-100.00,SSE,164,4.0,5.0,35,0.00,,,-99.99,0.000000,,2013-03-14 04:52:00,
2013-03-13 23:02:00,49.0,25.0,-100.00,South,183,4.0,5.0,39,0.00,,,-99.99,0.000000,,2013-03-14 05:02:00,
2013-03-13 23:11:00,50.0,25.0,-100.00,SSE,167,4.0,5.0,37,0.00,,,-99.99,0.000000,,2013-03-14 05:11:00,
2013-03-13 23:21:00,50.0,27.0,-100.00,SSW,201,4.0,7.0,41,0.00,,,-99.99,0.000000,,2013-03-14 05:21:00,
2013-03-13 23:32:00,47.0,28.0,-100.00,South,177,5.0,6.0,46,0.00,,,-99.99,0.000000,,2013-03-14 05:32:00,
2013-03-13 23:42:00,48.0,28.0,-100.00,SSW,194,4.0,6.0,46,0.00,,,-99.99,0.000000,,2013-03-14 05:42:00,
2013-03-13 23:52:00,47.0,29.0,-100.00,South,187,5.0,7.0,50,0.00,,,-99.99,0.000000,,2013-03-14 05:52:00,